Time;durP1;ratioP1;P1;durP2;ratioP2;P2;SDS_P1;SDS_P2;PMS_P1;PMS_P2;Temp;Humidity;BMP_temperature;BMP_pressure;BME280_temperature;BME280_humidity;BME280_pressure;Samples;Min_cycle;Max_cycle;Signal;HPM_P1;HPM_P2
2022/09/24 00:00:49;;;;;;;16.65;10.43;;;;;;;9.75;75.17;100609.14;1844140;77;21007;-70
2022/09/24 00:03:16;;;;;;;15.90;9.28;;;;;;;9.78;75.17;100601.36;1829073;77;21019;-70
2022/09/24 00:05:42;;;;;;;16.30;9.85;;;;;;;9.77;75.17;100598.34;1832749;77;21135;-70
2022/09/24 00:08:08;;;;;;;19.17;10.53;;;;;;;9.77;75.16;100600.52;1843732;77;21047;-70
2022/09/24 00:10:38;;;;;;;16.77;9.68;;;;;;;9.79;75.14;100599.84;1834406;77;21011;-70
2022/09/24 00:13:06;;;;;;;17.07;9.63;;;;;;;9.79;75.16;100591.02;1850854;77;21495;-70
2022/09/24 00:15:40;;;;;;;18.82;9.75;;;;;;;9.80;75.14;100595.36;1831956;77;21043;-70
2022/09/24 00:18:07;;;;;;;14.63;8.98;;;;;;;9.82;75.15;100596.02;1844966;77;21044;-70
2022/09/24 00:20:34;;;;;;;15.38;8.05;;;;;;;9.85;75.16;100595.73;1851006;77;21075;-70
2022/09/24 00:23:00;;;;;;;15.83;9.15;;;;;;;9.86;75.15;100585.39;1835165;77;20948;-70
2022/09/24 00:28:12;;;;;;;18.90;10.20;;;;;;;9.88;75.12;100580.26;1828177;77;21457;-70
2022/09/24 00:30:39;;;;;;;13.62;7.95;;;;;;;9.90;75.10;100577.41;1827818;77;21136;-70
2022/09/24 00:33:05;;;;;;;14.73;8.18;;;;;;;9.91;75.09;100573.77;1828227;77;21059;-70
2022/09/24 00:35:33;;;;;;;14.20;8.58;;;;;;;9.92;75.07;100573.59;1834207;77;20992;-71
2022/09/24 00:37:58;;;;;;;19.87;7.90;;;;;;;9.92;75.07;100564.78;1828684;77;21020;-70
2022/09/24 00:40:33;;;;;;;14.58;8.05;;;;;;;9.92;75.09;100564.78;1836323;77;21465;-70
2022/09/24 00:42:59;;;;;;;15.23;7.92;;;;;;;9.93;75.09;100553.11;1838672;77;21782;-70
2022/09/24 00:45:26;;;;;;;19.73;11.33;;;;;;;9.92;75.06;100552.27;1832046;77;21031;-70
2022/09/24 00:47:52;;;;;;;14.60;9.75;;;;;;;9.92;75.07;100554.12;1830071;76;21991;-70
2022/09/24 00:50:28;;;;;;;16.55;10.72;;;;;;;9.91;75.06;100554.63;1842964;77;21027;-70
2022/09/24 00:53:01;;;;;;;17.77;10.82;;;;;;;9.92;75.06;100554.12;1830636;77;21485;-70
2022/09/24 00:55:27;;;;;;;16.60;10.65;;;;;;;9.91;75.06;100545.80;1839101;77;21074;-70
2022/09/24 00:58:02;;;;;;;14.73;8.63;;;;;;;9.92;75.06;100549.61;1835408;77;20973;-70
2022/09/24 01:00:29;;;;;;;13.98;8.90;;;;;;;9.91;75.06;100548.45;1842256;77;21051;-70
2022/09/24 01:03:14;;;;;;;18.35;10.30;;;;;;;9.87;75.05;100547.11;1830872;77;21043;-70
2022/09/24 01:05:41;;;;;;;17.52;8.80;;;;;;;9.85;75.07;100547.78;1844017;77;21025;-70
2022/09/24 01:08:12;;;;;;;13.53;7.72;;;;;;;9.85;75.07;100542.45;1830084;77;21316;-70
2022/09/24 01:11:14;;;;;;;11.78;8.08;;;;;;;9.87;75.08;100537.78;1831990;77;21517;-70
2022/09/24 01:14:19;;;;;;;12.95;7.83;;;;;;;9.87;75.10;100539.12;1827290;77;21519;-70
2022/09/24 01:17:26;;;;;;;14.53;8.03;;;;;;;9.87;75.08;100539.12;1843104;77;21589;-70
2022/09/24 01:20:04;;;;;;;13.15;8.53;;;;;;;9.86;75.08;100540.11;1847786;77;20984;-70
2022/09/24 01:22:51;;;;;;;15.38;9.08;;;;;;;9.84;75.09;100544.77;1858893;76;21433;-70
2022/09/24 01:25:46;;;;;;;12.78;7.83;;;;;;;9.82;75.13;100537.42;1847308;77;20967;-70
2022/09/24 01:28:36;;;;;;;16.07;8.98;;;;;;;9.80;75.15;100532.77;1859131;77;21405;-70
2022/09/24 01:31:20;;;;;;;17.23;9.28;;;;;;;9.78;75.17;100533.44;1828126;78;21010;-70
2022/09/24 01:33:46;;;;;;;18.42;9.13;;;;;;;9.75;75.21;100525.75;1842034;77;20991;-70
2022/09/24 01:36:13;;;;;;;13.62;8.20;;;;;;;9.75;75.24;100525.75;1851514;77;21121;-70
2022/09/24 01:38:43;;;;;;;13.25;8.65;;;;;;;9.74;75.25;100525.44;1830521;77;21015;-70
2022/09/24 01:41:10;;;;;;;11.57;8.33;;;;;;;9.72;75.27;100524.74;1859847;77;21006;-70
2022/09/24 01:43:37;;;;;;;17.67;8.78;;;;;;;9.71;75.31;100523.91;1845854;77;21462;-70
2022/09/24 01:46:05;;;;;;;15.45;8.63;;;;;;;9.70;75.34;100524.08;1817344;78;21008;-70
2022/09/24 01:48:34;;;;;;;15.32;9.53;;;;;;;9.71;75.38;100520.44;1823564;78;21627;-70
2022/09/24 01:51:36;;;;;;;14.43;8.33;;;;;;;9.71;75.42;100520.44;1800102;78;21431;-70
2022/09/24 01:54:24;;;;;;;15.68;9.70;;;;;;;9.69;75.46;100513.09;1822992;78;21797;-70
2022/09/24 01:56:57;;;;;;;15.78;9.75;;;;;;;9.66;75.49;100520.07;1820694;78;21001;-70
2022/09/24 01:59:39;;;;;;;12.93;8.70;;;;;;;9.66;75.54;100514.74;1799188;78;21062;-70
2022/09/24 02:02:35;;;;;;;15.83;9.55;;;;;;;9.62;75.58;100508.91;1803141;78;21160;-70
2022/09/24 02:05:15;;;;;;;14.43;9.23;;;;;;;9.61;75.64;100513.05;1802923;78;21026;-70
2022/09/24 02:07:58;;;;;;;15.72;9.13;;;;;;;9.57;75.65;100511.73;1788109;77;21025;-70
2022/09/24 02:10:24;;;;;;;17.87;10.13;;;;;;;9.56;75.71;100513.55;1827761;75;21017;-70
2022/09/24 02:12:56;;;;;;;16.32;9.98;;;;;;;9.52;75.73;100508.20;1837178;77;21067;-70
2022/09/24 02:15:32;;;;;;;19.42;10.65;;;;;;;9.48;75.79;100501.04;1827523;77;21300;-70
2022/09/24 02:18:02;;;;;;;15.15;9.88;;;;;;;9.47;75.83;100507.84;1829688;77;21030;-70
2022/09/24 02:20:28;;;;;;;16.23;10.00;;;;;;;9.43;75.87;100500.67;1830399;77;20974;-70
2022/09/24 02:22:55;;;;;;;14.73;9.25;;;;;;;9.42;75.93;100503.02;1822466;77;21467;-70
2022/09/24 02:25:26;;;;;;;17.67;10.00;;;;;;;9.38;75.93;100494.17;1802599;78;21076;-70
2022/09/24 02:27:52;;;;;;;17.98;9.50;;;;;;;9.35;76.00;100499.33;1828288;77;21246;-70
2022/09/24 02:30:18;;;;;;;18.85;10.30;;;;;;;9.31;76.05;100491.32;1821198;77;21014;-70
2022/09/24 02:32:44;;;;;;;20.08;10.08;;;;;;;9.29;76.09;100493.81;1815925;78;20986;-70
2022/09/24 02:35:11;;;;;;;15.80;9.73;;;;;;;9.27;76.14;100494.45;1809948;78;21552;-70
2022/09/24 02:37:40;;;;;;;20.35;11.65;;;;;;;9.24;76.22;100492.11;1822194;78;21006;-70
2022/09/24 02:40:08;;;;;;;15.80;9.55;;;;;;;9.22;76.26;100492.25;1822768;77;21784;-70
2022/09/24 02:42:35;;;;;;;18.75;10.30;;;;;;;9.20;76.31;100491.59;1837589;76;21014;-70
2022/09/24 02:45:03;;;;;;;19.73;11.30;;;;;;;9.17;76.36;100493.25;1828974;77;20987;-70
2022/09/24 02:47:29;;;;;;;18.67;10.28;;;;;;;9.14;76.41;100492.23;1830280;77;21625;-70
2022/09/24 02:49:56;;;;;;;16.37;10.35;;;;;;;9.12;76.46;100492.88;1828932;77;20990;-70
2022/09/24 02:52:22;;;;;;;20.00;11.10;;;;;;;9.09;76.52;100491.86;1828253;77;21059;-70
2022/09/24 02:54:51;;;;;;;14.78;10.28;;;;;;;9.07;76.57;100484.55;1822188;76;21045;-71
2022/09/24 02:57:18;;;;;;;17.12;11.18;;;;;;;9.06;76.64;100486.86;1824652;76;21455;-70
2022/09/24 02:59:45;;;;;;;18.67;11.15;;;;;;;9.03;76.69;100485.85;1830960;77;21097;-70
2022/09/24 03:02:11;;;;;;;16.25;10.88;;;;;;;8.99;76.74;100491.14;1839967;77;21033;-70
2022/09/24 03:04:37;;;;;;;17.67;9.80;;;;;;;8.96;76.79;100482.16;1843104;77;21102;-70
2022/09/24 03:07:04;;;;;;;16.12;11.22;;;;;;;8.92;76.86;100484.78;1838992;77;21439;-70
2022/09/24 03:09:30;;;;;;;17.65;12.25;;;;;;;8.90;76.91;100486.78;1830420;77;20994;-70
2022/09/24 03:11:59;;;;;;;20.48;10.30;;;;;;;8.86;76.95;100476.12;1833046;76;20955;-70
2022/09/24 03:14:24;;;;;;;18.17;11.05;;;;;;;8.86;77.02;100482.77;1820952;77;21121;-70
2022/09/24 03:16:51;;;;;;;19.40;11.28;;;;;;;8.83;77.07;100479.90;1826712;77;21766;-70
2022/09/24 03:19:17;;;;;;;19.02;11.85;;;;;;;8.81;77.13;100476.58;1824985;77;20985;-70
2022/09/24 03:21:43;;;;;;;14.93;9.80;;;;;;;8.79;77.18;100473.74;1820383;77;20946;-70
2022/09/24 03:24:09;;;;;;;19.85;10.00;;;;;;;8.75;77.25;100469.72;1819527;77;21050;-70
2022/09/24 03:26:36;;;;;;;16.50;10.50;;;;;;;8.74;77.30;100471.55;1829846;77;21006;-70
2022/09/24 03:29:02;;;;;;;17.45;10.38;;;;;;;8.74;77.34;100470.70;1826215;77;21480;-70
2022/09/24 03:31:28;;;;;;;15.30;9.73;;;;;;;8.71;77.38;100472.35;1826866;77;21495;-70
2022/09/24 03:33:56;;;;;;;15.98;10.00;;;;;;;8.72;77.43;100468.71;1820327;77;20992;-70
2022/09/24 03:36:24;;;;;;;13.08;9.78;;;;;;;8.70;77.47;100463.54;1819979;77;21023;-70
2022/09/24 03:38:54;;;;;;;16.17;10.08;;;;;;;8.69;77.53;100461.86;1807538;78;21065;-70
2022/09/24 03:41:20;;;;;;;16.82;10.60;;;;;;;8.66;77.58;100459.52;1799804;78;21692;-70
2022/09/24 03:43:47;;;;;;;16.40;10.05;;;;;;;8.64;77.63;100456.69;1808677;78;21006;-70
2022/09/24 03:46:14;;;;;;;17.73;9.73;;;;;;;8.62;77.65;100458.68;1801841;78;21042;-70
2022/09/24 03:48:40;;;;;;;16.50;10.53;;;;;;;8.60;77.71;100454.00;1835301;77;21041;-70
2022/09/24 03:51:17;;;;;;;15.60;10.08;;;;;;;8.57;77.75;100451.16;1805622;78;21001;-70
2022/09/24 03:53:44;;;;;;;18.27;11.03;;;;;;;8.56;77.78;100445.98;1820582;77;21209;-70
2022/09/24 03:56:10;;;;;;;22.17;9.98;;;;;;;8.54;77.82;100450.15;1826698;77;21030;-70
2022/09/24 03:58:37;;;;;;;15.83;9.68;;;;;;;8.55;77.87;100448.33;1815335;78;21472;-70
2022/09/24 04:01:08;;;;;;;18.82;11.30;;;;;;;8.55;77.93;100454.98;1786717;78;20970;-70
2022/09/24 04:03:35;;;;;;;16.65;10.50;;;;;;;8.51;77.98;100459.25;1819637;78;21072;-70
2022/09/24 04:06:01;;;;;;;19.82;11.68;;;;;;;8.48;78.04;100462.22;1799079;78;21232;-70
2022/09/24 04:08:27;;;;;;;20.27;12.40;;;;;;;8.45;78.09;100459.88;1807069;78;21042;-70
2022/09/24 04:10:54;;;;;;;19.87;10.58;;;;;;;8.43;78.15;100456.55;1816864;77;33831;-70
2022/09/24 04:13:21;;;;;;;22.00;11.25;;;;;;;8.42;78.21;100458.86;1831050;77;21433;-70
2022/09/24 04:15:49;;;;;;;17.52;10.90;;;;;;;8.44;78.24;100463.52;1850102;77;20955;-70
2022/09/24 04:18:15;;;;;;;20.02;11.10;;;;;;;8.46;78.29;100461.55;1849833;77;21245;-70
2022/09/24 04:20:41;;;;;;;18.67;10.85;;;;;;;8.43;78.32;100463.19;1859626;77;20971;-70
2022/09/24 04:23:07;;;;;;;14.70;10.63;;;;;;;8.41;78.38;100455.85;1860191;77;21004;-70
2022/09/24 04:25:33;;;;;;;17.87;11.28;;;;;;;8.41;78.42;100454.52;1843418;77;21449;-70
2022/09/24 04:28:01;;;;;;;21.50;11.55;;;;;;;8.42;78.48;100456.20;1846476;77;20973;-70
2022/09/24 04:30:29;;;;;;;18.65;12.18;;;;;;;8.43;78.55;100457.87;1815119;78;21071;-70
2022/09/24 04:32:55;;;;;;;16.80;11.80;;;;;;;8.44;78.62;100460.85;1814823;78;21002;-70
2022/09/24 04:35:22;;;;;;;20.77;12.30;;;;;;;8.40;78.66;100455.53;1824378;78;21007;-70
2022/09/24 04:37:48;;;;;;;18.30;11.88;;;;;;;8.39;78.74;100457.84;1815528;78;21415;-70
2022/09/24 04:40:15;;;;;;;23.73;13.30;;;;;;;8.37;78.79;100451.83;1813904;78;21029;-70
2022/09/24 04:42:43;;;;;;;22.32;13.30;;;;;;;8.36;78.89;100454.66;1822122;78;21435;-70
2022/09/24 04:45:10;;;;;;;29.37;12.35;;;;;;;8.38;78.94;100454.00;1822164;78;21028;-70
2022/09/24 04:47:39;;;;;;;21.97;12.70;;;;;;;8.38;79.02;100453.51;1817416;78;20978;-70
2022/09/24 04:50:05;;;;;;;20.10;13.20;;;;;;;8.33;79.08;100453.16;1836940;77;21401;-70
2022/09/24 04:52:32;;;;;;;17.12;11.85;;;;;;;8.32;79.16;100444.83;1838811;78;20907;-70
2022/09/24 04:54:59;;;;;;;20.40;12.10;;;;;;;8.32;79.21;100447.48;1813576;76;21878;-70
2022/09/24 04:57:26;;;;;;;17.60;11.35;;;;;;;8.30;79.29;100451.30;1829718;78;21028;-69
2022/09/24 04:59:53;;;;;;;20.15;12.53;;;;;;;8.28;79.36;100448.78;1827299;78;20974;-70
2022/09/24 05:02:19;;;;;;;17.48;11.35;;;;;;;8.29;79.44;100445.14;1816627;78;21439;-69
2022/09/24 05:04:45;;;;;;;19.15;11.33;;;;;;;8.33;79.51;100443.85;1829780;78;20962;-70
2022/09/24 05:07:11;;;;;;;22.37;12.25;;;;;;;8.31;79.57;100447.14;1818282;78;21114;-70
2022/09/24 05:09:37;;;;;;;19.60;11.05;;;;;;;8.33;79.65;100446.51;1817519;78;21023;-70
2022/09/24 05:12:04;;;;;;;22.15;11.25;;;;;;;8.31;79.70;100441.83;1809252;78;21033;-69
2022/09/24 05:14:30;;;;;;;15.45;11.08;;;;;;;8.32;79.79;100440.84;1826311;78;20995;-70
2022/09/24 05:16:56;;;;;;;15.98;10.80;;;;;;;8.35;79.85;100445.01;1779985;79;21083;-70
2022/09/24 05:19:22;;;;;;;18.62;10.85;;;;;;;8.35;79.94;100439.20;1804229;78;21102;-69
2022/09/24 05:21:48;;;;;;;35.58;12.98;;;;;;;8.38;80.02;100441.55;1818768;78;21502;-69
2022/09/24 05:24:14;;;;;;;26.17;11.97;;;;;;;8.43;80.08;100447.25;1807744;76;21446;-69
2022/09/24 05:29:25;;;;;;;20.05;11.53;;;;;;;8.40;80.16;100439.59;1825627;77;20999;-69
2022/09/24 05:31:51;;;;;;;20.45;11.70;;;;;;;8.27;80.19;100432.98;1800794;78;21549;-69
2022/09/24 05:34:17;;;;;;;16.40;10.43;;;;;;;8.22;80.28;100436.09;1840310;77;20967;-69
2022/09/24 05:36:43;;;;;;;16.77;10.80;;;;;;;8.24;80.37;100443.40;1801190;78;21047;-69
2022/09/24 05:39:10;;;;;;;17.27;11.00;;;;;;;8.31;80.46;100436.52;1838216;77;21478;-69
2022/09/24 05:41:37;;;;;;;19.85;11.28;;;;;;;8.37;80.53;100435.89;1803049;78;21014;-69
2022/09/24 05:44:04;;;;;;;20.32;11.83;;;;;;;8.44;80.57;100435.61;1800603;78;21064;-69
2022/09/24 05:46:31;;;;;;;23.27;11.22;;;;;;;8.50;80.62;100437.66;1820247;77;21066;-70
2022/09/24 05:48:58;;;;;;;18.48;11.88;;;;;;;8.49;80.64;100433.33;1816223;77;21000;-69
2022/09/24 05:51:24;;;;;;;17.85;10.15;;;;;;;8.53;80.71;100432.03;1805525;78;20982;-70
2022/09/24 05:53:50;;;;;;;15.25;10.75;;;;;;;8.58;80.76;100438.71;1800939;78;21079;-69
2022/09/24 05:56:16;;;;;;;22.22;11.68;;;;;;;8.67;80.79;100433.77;1800915;79;21086;-70
2022/09/24 05:58:43;;;;;;;18.65;10.20;;;;;;;8.78;80.84;100442.81;1830496;77;21486;-70
2022/09/24 06:01:09;;;;;;;16.65;11.55;;;;;;;8.83;80.85;100440.02;1810444;77;21544;-70
2022/09/24 06:03:35;;;;;;;22.67;10.43;;;;;;;8.90;80.89;100442.91;1794832;78;20989;-70
2022/09/24 06:06:01;;;;;;;21.68;11.33;;;;;;;8.96;80.93;100434.28;1800914;78;21091;-70
2022/09/24 06:08:28;;;;;;;18.75;10.40;;;;;;;9.01;80.93;100435.95;1838189;77;21054;-70
2022/09/24 06:11:04;;;;;;;16.23;9.85;;;;;;;9.12;80.95;100440.16;1812707;78;21243;-70
2022/09/24 06:13:32;;;;;;;16.30;10.13;;;;;;;9.20;80.99;100446.36;1824549;77;21023;-69
2022/09/24 06:16:07;;;;;;;15.68;11.00;;;;;;;9.31;81.03;100450.56;1820509;75;21021;-70
2022/09/24 06:18:35;;;;;;;17.80;10.85;;;;;;;9.37;81.02;100446.76;1799950;78;21096;-69
2022/09/24 06:21:02;;;;;;;16.05;11.20;;;;;;;9.42;81.01;100445.80;1822201;78;21875;-70
2022/09/24 06:23:30;;;;;;;21.07;11.18;;;;;;;9.43;80.99;100446.11;1807236;78;20990;-69
2022/09/24 06:25:57;;;;;;;16.65;10.78;;;;;;;9.46;80.94;100447.11;1804339;78;20985;-70
2022/09/24 06:28:24;;;;;;;17.20;10.82;;;;;;;9.44;80.90;100449.11;1812795;78;20993;-70
2022/09/24 06:30:50;;;;;;;17.85;11.20;;;;;;;9.47;80.89;100450.61;1850085;75;20986;-71
2022/09/24 06:33:16;;;;;;;15.25;10.25;;;;;;;9.42;80.84;100463.59;1850987;75;21062;-71
2022/09/24 06:35:43;;;;;;;19.42;10.48;;;;;;;9.40;80.83;100454.41;1837471;75;21062;-71
2022/09/24 06:38:11;;;;;;;15.88;10.90;;;;;;;9.41;80.82;100456.58;1813195;77;21038;-71
2022/09/24 06:40:37;;;;;;;21.50;11.63;;;;;;;9.42;80.79;100456.44;1798866;78;21521;-71
2022/09/24 06:43:05;;;;;;;19.48;12.40;;;;;;;9.46;80.76;100457.76;1850011;77;20983;-71
2022/09/24 06:45:32;;;;;;;19.62;11.63;;;;;;;9.57;80.72;100455.82;1852810;77;21126;-71
2022/09/24 06:48:00;;;;;;;21.82;12.85;;;;;;;9.64;80.67;100457.64;1852172;77;20957;-71
2022/09/24 06:50:28;;;;;;;19.00;11.75;;;;;;;9.74;80.67;100457.53;1843470;77;20991;-71
2022/09/24 06:52:55;;;;;;;18.55;11.93;;;;;;;9.82;80.65;100454.86;1860085;77;20961;-71
2022/09/24 06:55:21;;;;;;;16.10;11.50;;;;;;;9.94;80.64;100450.89;1846301;77;21020;-72
2022/09/24 06:57:47;;;;;;;17.15;11.15;;;;;;;10.08;80.61;100452.08;1849744;76;21122;-72
2022/09/24 07:00:14;;;;;;;21.57;11.10;;;;;;;10.18;80.55;100453.61;1852952;77;20976;-71
2022/09/24 07:02:40;;;;;;;17.52;10.82;;;;;;;10.30;80.46;100448.30;1841686;76;21038;-71
2022/09/24 07:05:07;;;;;;;17.90;11.55;;;;;;;10.32;80.38;100450.28;1849019;77;21504;-70
2022/09/24 07:07:33;;;;;;;17.20;11.38;;;;;;;10.36;80.35;100450.78;1805253;77;21002;-71
2022/09/24 07:10:02;;;;;;;19.02;11.30;;;;;;;10.46;80.37;100448.77;1822169;77;21256;-71
2022/09/24 07:12:29;;;;;;;17.52;11.45;;;;;;;10.55;80.31;100458.94;1821099;77;21487;-70
2022/09/24 07:14:56;;;;;;;16.85;11.22;;;;;;;10.57;80.22;100459.59;1805036;77;20979;-71
2022/09/24 07:17:23;;;;;;;16.87;11.53;;;;;;;10.53;80.13;100461.27;1785083;79;21055;-71
2022/09/24 07:19:50;;;;;;;21.20;11.60;;;;;;;10.53;80.11;100463.94;1789051;79;20998;-71
2022/09/24 07:22:16;;;;;;;20.50;10.38;;;;;;;10.67;80.07;100464.24;1789139;79;21130;-71
2022/09/24 07:24:42;;;;;;;16.25;10.43;;;;;;;10.96;80.02;100465.37;1790353;77;21498;-71
2022/09/24 07:27:08;;;;;;;19.10;11.93;;;;;;;11.22;79.94;100467.80;1802986;77;20952;-71
2022/09/24 07:29:34;;;;;;;23.62;11.20;;;;;;;11.37;79.79;100468.72;1797935;79;21036;-71
2022/09/24 07:32:02;;;;;;;17.27;11.35;;;;;;;11.62;79.70;100476.63;1797543;79;21014;-70
2022/09/24 07:34:28;;;;;;;16.15;10.75;;;;;;;11.92;79.68;100472.66;1799564;79;21180;-70
2022/09/24 07:36:55;;;;;;;17.35;10.95;;;;;;;12.14;79.46;100476.33;1788087;79;21018;-70
2022/09/24 07:39:23;;;;;;;17.27;10.72;;;;;;;12.13;79.24;100473.35;1809285;78;21922;-71
2022/09/24 07:41:51;;;;;;;13.98;10.38;;;;;;;12.23;79.17;100475.28;1818541;77;21074;-71
2022/09/24 07:44:22;;;;;;;17.50;10.20;;;;;;;12.53;79.04;100479.70;1834379;77;21042;-71
2022/09/24 07:46:47;;;;;;;15.73;10.33;;;;;;;12.76;78.81;100483.69;1811049;78;21173;-71
2022/09/24 07:49:13;;;;;;;15.05;10.40;;;;;;;12.93;78.62;100483.02;1813506;76;21266;-71
2022/09/24 07:51:39;;;;;;;15.20;10.40;;;;;;;12.97;78.49;100484.31;1837758;76;21531;-71
2022/09/24 07:54:06;;;;;;;15.08;10.70;;;;;;;13.01;78.33;100482.44;1795571;77;21553;-71
2022/09/24 07:56:32;;;;;;;15.78;10.48;;;;;;;13.12;78.16;100486.53;1781933;79;20994;-71
2022/09/24 07:58:58;;;;;;;14.68;10.35;;;;;;;13.24;77.92;100483.70;1789846;79;21530;-71
2022/09/24 08:01:25;;;;;;;17.32;11.00;;;;;;;13.30;77.68;100486.97;1785497;79;20999;-70
2022/09/24 08:03:51;;;;;;;13.93;9.83;;;;;;;13.29;77.44;100488.52;1805852;77;20983;-70
2022/09/24 08:06:18;;;;;;;13.45;9.03;;;;;;;13.52;77.28;100491.91;1798895;77;20986;-70
2022/09/24 08:08:51;;;;;;;15.48;9.60;;;;;;;13.82;77.04;100487.34;1818674;78;21047;-71
2022/09/24 08:11:18;;;;;;;14.28;9.43;;;;;;;13.96;76.78;100482.45;1789769;79;21513;-71
2022/09/24 08:13:44;;;;;;;11.03;7.72;;;;;;;14.35;76.60;100477.52;1832690;77;21625;-71
2022/09/24 08:16:10;;;;;;;11.15;7.65;;;;;;;14.22;75.90;100461.24;1808493;78;20958;-71
2022/09/24 08:18:36;;;;;;;12.78;8.23;;;;;;;14.22;75.90;100461.24;1849860;77;21424;-71
2022/09/24 08:21:10;;;;;;;9.88;7.22;;;;;;;14.37;75.81;100479.99;1851522;77;20971;-71
2022/09/24 08:23:41;;;;;;;11.85;7.22;;;;;;;14.57;75.56;100477.47;1859372;77;21111;-71
2022/09/24 08:26:10;;;;;;;11.53;6.92;;;;;;;14.72;75.37;100479.56;1850489;76;20964;-71
2022/09/24 08:28:36;;;;;;;8.05;5.95;;;;;;;14.95;75.06;100470.77;1826144;76;21081;-71
2022/09/24 08:31:06;;;;;;;13.78;6.95;;;;;;;15.15;74.61;100465.00;1849011;75;20999;-71
2022/09/24 08:33:32;;;;;;;9.78;5.97;;;;;;;15.09;74.23;100471.17;1844529;76;21002;-70
2022/09/24 08:35:59;;;;;;;7.90;5.05;;;;;;;15.08;73.99;100465.47;1846049;76;21058;-70
2022/09/24 08:38:26;;;;;;;7.55;5.65;;;;;;;15.18;73.64;100471.83;1857047;76;20991;-70
2022/09/24 08:41:09;;;;;;;8.25;5.83;;;;;;;15.19;73.17;100467.61;1847154;76;21541;-71
2022/09/24 08:44:13;;;;;;;8.93;6.42;;;;;;;15.22;72.83;100465.03;1840173;76;20982;-71
2022/09/24 08:49:39;;;;;;;10.72;7.10;;;;;;;15.23;71.80;100466.19;1852819;75;21741;-71
2022/09/24 08:52:29;;;;;;;13.62;7.45;;;;;;;15.26;71.40;100463.10;1846413;77;20974;-71
2022/09/24 08:54:57;;;;;;;15.25;8.33;;;;;;;15.21;71.07;100457.48;1836210;77;21065;-71
2022/09/24 08:57:23;;;;;;;18.25;9.00;;;;;;;15.18;70.70;100462.42;1826020;77;21045;-71
2022/09/24 08:59:51;;;;;;;17.15;8.63;;;;;;;15.26;70.46;100457.73;1839826;77;21053;-71
2022/09/24 09:02:43;;;;;;;19.00;9.15;;;;;;;15.37;70.18;100457.17;1822571;78;20916;-71
2022/09/24 09:05:41;;;;;;;17.65;8.60;;;;;;;15.46;69.95;100458.65;1838321;77;21550;-71
2022/09/24 09:08:14;;;;;;;19.70;8.73;;;;;;;15.51;69.67;100454.56;1829662;77;20954;-72
2022/09/24 09:10:41;;;;;;;28.38;9.33;;;;;;;15.37;69.53;100431.64;1841720;77;22001;-71
2022/09/24 09:13:18;;;;;;;22.87;8.58;;;;;;;15.59;69.04;100452.52;1829436;77;21423;-71
2022/09/24 09:15:49;;;;;;;16.05;7.37;;;;;;;15.68;68.80;100449.15;1835728;77;21047;-71
2022/09/24 09:18:31;;;;;;;10.28;4.47;;;;;;;15.77;68.46;100446.07;1768998;79;21048;-71
2022/09/24 09:21:02;;;;;;;4.97;3.60;;;;;;;15.80;68.11;100444.83;1796223;79;21072;-72
2022/09/24 09:23:33;;;;;;;6.95;4.65;;;;;;;15.82;67.62;100449.50;1810279;78;20976;-71
2022/09/24 09:25:59;;;;;;;9.30;5.53;;;;;;;15.83;67.20;100451.17;1770297;79;20988;-71
2022/09/24 09:28:26;;;;;;;9.63;6.00;;;;;;;15.91;66.92;100450.97;1792443;79;21150;-72
2022/09/24 09:31:07;;;;;;;4.45;3.12;;;;;;;16.12;66.68;100456.19;1787157;79;20997;-71
2022/09/24 09:34:04;;;;;;;4.60;3.08;;;;;;;16.20;66.18;100449.27;1811006;78;21080;-71
2022/09/24 09:37:10;;;;;;;7.08;3.67;;;;;;;16.14;65.67;100454.14;1767134;79;20984;-71
2022/09/24 09:39:54;;;;;;;8.48;4.00;;;;;;;16.22;65.22;100451.23;1765320;79;21001;-71
2022/09/24 09:42:35;;;;;;;6.28;3.85;;;;;;;16.28;64.77;100447.73;1780420;78;21081;-71
2022/09/24 09:45:31;;;;;;;10.58;4.20;;;;;;;16.32;64.39;100446.81;1761878;79;21509;-71
2022/09/24 09:47:57;;;;;;;6.85;4.80;;;;;;;16.35;64.04;100440.50;1821732;77;21052;-71
2022/09/24 09:50:28;;;;;;;8.25;5.10;;;;;;;16.22;63.51;100441.01;1783654;79;21604;-71
2022/09/24 09:52:54;;;;;;;6.75;4.75;;;;;;;16.26;63.32;100439.53;1781489;79;20977;-71
2022/09/24 09:55:25;;;;;;;9.23;5.28;;;;;;;16.29;63.04;100440.50;1798127;79;21148;-71
2022/09/24 09:57:51;;;;;;;7.28;5.67;;;;;;;16.39;62.88;100439.05;1798094;79;20981;-71
2022/09/24 10:00:26;;;;;;;9.00;5.85;;;;;;;16.52;62.75;100436.03;1798381;78;20984;-71
2022/09/24 10:02:52;;;;;;;8.10;5.15;;;;;;;16.60;62.59;100438.56;1798481;79;20941;-71
2022/09/24 10:05:22;;;;;;;9.83;4.97;;;;;;;16.61;62.42;100437.50;1808446;78;21024;-70
2022/09/24 10:07:48;;;;;;;11.55;4.87;;;;;;;16.57;62.30;100437.63;1813562;78;21030;-70
2022/09/24 10:10:22;;;;;;;5.87;4.15;;;;;;;16.59;62.14;100440.94;1766376;79;21040;-71
2022/09/24 10:12:52;;;;;;;7.08;3.75;;;;;;;16.55;61.95;100445.88;1795937;79;20971;-71
2022/09/24 10:15:20;;;;;;;6.15;3.60;;;;;;;16.43;61.71;100441.62;1776946;78;20980;-71
2022/09/24 10:17:49;;;;;;;6.53;3.60;;;;;;;16.40;61.53;100438.00;1797874;78;21491;-71
2022/09/24 10:20:26;;;;;;;5.13;3.53;;;;;;;16.56;61.33;100445.39;1848863;77;21121;-71
2022/09/24 10:23:05;;;;;;;6.58;3.45;;;;;;;16.63;61.15;100443.53;1859600;77;20977;-71
2022/09/24 10:25:31;;;;;;;3.90;2.55;;;;;;;16.60;60.96;100445.30;1852127;77;21072;-71
2022/09/24 10:30:57;;;;;;;4.45;3.20;;;;;;;16.50;60.58;100444.34;1809339;78;20997;-71
2022/09/24 10:33:24;;;;;;;4.58;3.33;;;;;;;16.37;60.28;100447.84;1803741;78;21666;-70
2022/09/24 10:35:50;;;;;;;5.00;3.58;;;;;;;16.32;60.14;100444.95;1812870;78;21041;-71
2022/09/24 10:38:18;;;;;;;5.15;3.47;;;;;;;16.42;60.04;100445.37;1806048;78;20974;-71
2022/09/24 10:40:45;;;;;;;5.58;4.20;;;;;;;16.56;59.89;100445.39;1816823;78;21423;-71
2022/09/24 10:43:19;;;;;;;6.97;3.77;;;;;;;16.69;59.75;100446.72;1816154;78;20958;-71
2022/09/24 10:46:16;;;;;;;10.43;6.58;;;;;;;16.82;59.62;100444.01;1825700;77;21152;-71
2022/09/24 10:48:44;;;;;;;8.78;6.30;;;;;;;17.02;59.51;100445.34;1824622;77;20996;-71
2022/09/24 10:51:25;;;;;;;14.50;7.17;;;;;;;17.12;59.50;100441.69;1825780;77;21490;-71
2022/09/24 10:53:59;;;;;;;9.65;5.65;;;;;;;17.26;59.56;100439.27;1825562;77;21503;-71
2022/09/24 10:56:42;;;;;;;8.10;5.08;;;;;;;17.37;59.52;100435.39;1831375;77;20977;-71
2022/09/24 10:59:30;;;;;;;6.95;4.90;;;;;;;17.53;59.51;100434.06;1833557;77;21132;-71
2022/09/24 11:02:26;;;;;;;9.25;6.35;;;;;;;17.58;59.39;100437.00;1825822;77;21007;-71
2022/09/24 11:05:00;;;;;;;9.43;5.15;;;;;;;17.29;59.08;100432.92;1799282;78;21005;-71
2022/09/24 11:07:51;;;;;;;6.97;5.08;;;;;;;17.28;59.04;100435.30;1825832;77;22193;-71
2022/09/24 11:10:55;;;;;;;6.65;4.97;;;;;;;17.44;58.91;100433.50;1825602;75;20974;-71
2022/09/24 11:13:42;;;;;;;8.08;5.05;;;;;;;17.60;58.87;100432.72;1839457;77;21813;-72
2022/09/24 11:16:32;;;;;;;10.45;4.90;;;;;;;17.73;58.81;100436.72;1825855;77;21363;-72
2022/09/24 11:19:12;;;;;;;6.65;4.78;;;;;;;17.77;58.63;100436.57;1825618;77;21042;-71
2022/09/24 11:21:59;;;;;;;7.53;5.15;;;;;;;17.85;58.46;100428.23;1799662;78;21018;-71
2022/09/24 11:24:46;;;;;;;9.15;5.20;;;;;;;17.97;58.30;100433.27;1859206;77;20976;-72
2022/09/24 11:27:46;;;;;;;6.78;4.55;;;;;;;18.02;58.11;100432.07;1858827;77;21064;-72
2022/09/24 11:30:21;;;;;;;8.55;4.50;;;;;;;18.04;57.92;100435.91;1859139;77;21485;-72
2022/09/24 11:33:28;;;;;;;6.90;4.95;;;;;;;17.82;57.51;100438.12;1836892;77;21020;-71
2022/09/24 11:36:27;;;;;;;9.00;5.80;;;;;;;17.65;57.35;100429.70;1859065;77;20984;-71
2022/09/24 11:39:16;;;;;;;5.90;4.30;;;;;;;17.78;57.21;100433.67;1845822;76;21136;-71
2022/09/24 11:42:15;;;;;;;9.33;5.08;;;;;;;17.66;56.88;100427.84;1803012;78;21972;-71
2022/09/24 11:45:24;;;;;;;7.33;4.95;;;;;;;17.47;56.71;100429.02;1812202;77;21471;-71
2022/09/24 11:48:13;;;;;;;8.05;4.87;;;;;;;17.53;56.56;100428.67;1830101;76;20958;-71
2022/09/24 11:51:13;;;;;;;;;;;;;;;17.51;56.24;100428.59;1821709;78;21060;-71